sensor_id;sensor_type;location;lat;lon;timestamp;P1;durP1;ratioP1;P2;durP2;ratioP2
21354;SDS011;10835;50.148;19.760;2023-07-13T00:01:12;6.13;;;4.32;;
21354;SDS011;10835;50.148;19.760;2023-07-13T00:03:41;5.90;;;4.35;;
21354;SDS011;10835;50.148;19.760;2023-07-13T00:06:09;4.90;;;3.97;;
21354;SDS011;10835;50.148;19.760;2023-07-13T00:08:38;6.85;;;4.38;;
21354;SDS011;10835;50.148;19.760;2023-07-13T00:11:06;8.63;;;5.32;;
21354;SDS011;10835;50.148;19.760;2023-07-13T00:13:37;10.73;;;5.47;;
21354;SDS011;10835;50.148;19.760;2023-07-13T00:16:07;13.95;;;6.00;;
21354;SDS011;10835;50.148;19.760;2023-07-13T00:18:37;8.82;;;5.50;;
21354;SDS011;10835;50.148;19.760;2023-07-13T00:21:07;7.07;;;4.70;;
21354;SDS011;10835;50.148;19.760;2023-07-13T00:23:36;10.80;;;6.20;;
21354;SDS011;10835;50.148;19.760;2023-07-13T00:26:07;8.93;;;5.82;;
21354;SDS011;10835;50.148;19.760;2023-07-13T00:28:38;11.93;;;5.75;;
21354;SDS011;10835;50.148;19.760;2023-07-13T00:31:10;10.15;;;6.25;;
21354;SDS011;10835;50.148;19.760;2023-07-13T00:33:41;8.23;;;5.55;;
21354;SDS011;10835;50.148;19.760;2023-07-13T00:36:09;6.90;;;5.45;;
21354;SDS011;10835;50.148;19.760;2023-07-13T00:38:38;8.73;;;5.63;;
21354;SDS011;10835;50.148;19.760;2023-07-13T00:41:07;9.88;;;6.38;;
21354;SDS011;10835;50.148;19.760;2023-07-13T00:43:36;11.98;;;6.47;;
21354;SDS011;10835;50.148;19.760;2023-07-13T00:46:14;15.60;;;7.35;;
21354;SDS011;10835;50.148;19.760;2023-07-13T00:48:52;9.90;;;5.65;;
21354;SDS011;10835;50.148;19.760;2023-07-13T00:51:24;10.35;;;5.80;;
21354;SDS011;10835;50.148;19.760;2023-07-13T00:53:58;21.48;;;6.22;;
21354;SDS011;10835;50.148;19.760;2023-07-13T00:56:31;7.75;;;5.07;;
21354;SDS011;10835;50.148;19.760;2023-07-13T00:59:02;11.50;;;4.70;;
21354;SDS011;10835;50.148;19.760;2023-07-13T01:01:34;8.40;;;5.00;;
21354;SDS011;10835;50.148;19.760;2023-07-13T01:04:03;6.72;;;4.57;;
21354;SDS011;10835;50.148;19.760;2023-07-13T01:06:34;8.35;;;4.47;;
21354;SDS011;10835;50.148;19.760;2023-07-13T01:09:04;9.75;;;4.60;;
21354;SDS011;10835;50.148;19.760;2023-07-13T01:11:33;6.60;;;4.00;;
21354;SDS011;10835;50.148;19.760;2023-07-13T01:14:02;5.20;;;3.88;;
21354;SDS011;10835;50.148;19.760;2023-07-13T01:16:33;5.05;;;3.92;;
21354;SDS011;10835;50.148;19.760;2023-07-13T01:19:06;4.75;;;3.63;;
21354;SDS011;10835;50.148;19.760;2023-07-13T01:21:51;6.90;;;4.07;;
21354;SDS011;10835;50.148;19.760;2023-07-13T01:24:20;6.97;;;3.60;;
21354;SDS011;10835;50.148;19.760;2023-07-13T01:26:48;6.60;;;4.03;;
21354;SDS011;10835;50.148;19.760;2023-07-13T01:29:17;4.82;;;3.40;;
21354;SDS011;10835;50.148;19.760;2023-07-13T01:31:45;4.88;;;3.53;;
21354;SDS011;10835;50.148;19.760;2023-07-13T01:34:13;5.20;;;3.15;;
21354;SDS011;10835;50.148;19.760;2023-07-13T01:36:42;5.43;;;3.38;;
21354;SDS011;10835;50.148;19.760;2023-07-13T01:39:12;6.50;;;3.13;;
21354;SDS011;10835;50.148;19.760;2023-07-13T01:41:41;5.47;;;4.00;;
21354;SDS011;10835;50.148;19.760;2023-07-13T01:44:09;4.75;;;3.60;;
21354;SDS011;10835;50.148;19.760;2023-07-13T01:46:37;3.92;;;2.85;;
21354;SDS011;10835;50.148;19.760;2023-07-13T01:49:06;8.30;;;3.88;;
21354;SDS011;10835;50.148;19.760;2023-07-13T01:51:34;6.07;;;3.92;;
21354;SDS011;10835;50.148;19.760;2023-07-13T01:54:03;5.22;;;3.38;;
21354;SDS011;10835;50.148;19.760;2023-07-13T01:56:33;5.80;;;3.63;;
21354;SDS011;10835;50.148;19.760;2023-07-13T01:59:01;7.25;;;3.55;;
21354;SDS011;10835;50.148;19.760;2023-07-13T02:01:29;5.13;;;3.58;;
21354;SDS011;10835;50.148;19.760;2023-07-13T02:03:58;5.63;;;3.75;;
21354;SDS011;10835;50.148;19.760;2023-07-13T02:06:28;5.63;;;4.05;;
21354;SDS011;10835;50.148;19.760;2023-07-13T02:08:56;4.55;;;3.60;;
21354;SDS011;10835;50.148;19.760;2023-07-13T02:11:25;3.90;;;3.13;;
21354;SDS011;10835;50.148;19.760;2023-07-13T02:14:01;4.07;;;3.08;;
21354;SDS011;10835;50.148;19.760;2023-07-13T02:16:30;5.72;;;3.80;;
21354;SDS011;10835;50.148;19.760;2023-07-13T02:18:59;4.82;;;3.65;;
21354;SDS011;10835;50.148;19.760;2023-07-13T02:21:28;6.35;;;4.00;;
21354;SDS011;10835;50.148;19.760;2023-07-13T02:23:56;4.88;;;3.45;;
21354;SDS011;10835;50.148;19.760;2023-07-13T02:26:26;4.70;;;3.03;;
21354;SDS011;10835;50.148;19.760;2023-07-13T02:28:55;6.40;;;3.75;;
21354;SDS011;10835;50.148;19.760;2023-07-13T02:31:25;7.20;;;3.85;;
21354;SDS011;10835;50.148;19.760;2023-07-13T02:33:53;4.07;;;3.25;;
21354;SDS011;10835;50.148;19.760;2023-07-13T02:36:21;5.88;;;3.67;;
21354;SDS011;10835;50.148;19.760;2023-07-13T02:38:50;6.78;;;4.00;;
21354;SDS011;10835;50.148;19.760;2023-07-13T02:41:19;6.63;;;4.05;;
21354;SDS011;10835;50.148;19.760;2023-07-13T02:43:47;7.68;;;4.78;;
21354;SDS011;10835;50.148;19.760;2023-07-13T02:46:15;5.30;;;4.10;;
21354;SDS011;10835;50.148;19.760;2023-07-13T02:48:47;6.70;;;4.07;;
21354;SDS011;10835;50.148;19.760;2023-07-13T02:51:15;4.88;;;3.75;;
21354;SDS011;10835;50.148;19.760;2023-07-13T02:53:44;4.05;;;3.65;;
21354;SDS011;10835;50.148;19.760;2023-07-13T02:56:12;6.28;;;4.25;;
21354;SDS011;10835;50.148;19.760;2023-07-13T02:58:43;7.70;;;4.70;;
21354;SDS011;10835;50.148;19.760;2023-07-13T03:01:12;9.02;;;4.55;;
21354;SDS011;10835;50.148;19.760;2023-07-13T03:03:45;4.43;;;3.75;;
21354;SDS011;10835;50.148;19.760;2023-07-13T03:06:18;4.88;;;4.18;;
21354;SDS011;10835;50.148;19.760;2023-07-13T03:08:50;5.07;;;3.95;;
21354;SDS011;10835;50.148;19.760;2023-07-13T03:11:20;5.15;;;3.67;;
21354;SDS011;10835;50.148;19.760;2023-07-13T03:13:59;5.95;;;4.20;;
21354;SDS011;10835;50.148;19.760;2023-07-13T03:16:31;4.82;;;3.65;;
21354;SDS011;10835;50.148;19.760;2023-07-13T03:19:01;5.35;;;3.88;;
21354;SDS011;10835;50.148;19.760;2023-07-13T03:21:29;7.65;;;4.10;;
21354;SDS011;10835;50.148;19.760;2023-07-13T03:23:58;4.75;;;3.95;;
21354;SDS011;10835;50.148;19.760;2023-07-13T03:26:27;6.63;;;4.10;;
21354;SDS011;10835;50.148;19.760;2023-07-13T03:28:56;4.57;;;3.85;;
21354;SDS011;10835;50.148;19.760;2023-07-13T03:31:25;6.60;;;4.05;;
21354;SDS011;10835;50.148;19.760;2023-07-13T03:33:56;4.25;;;3.35;;
21354;SDS011;10835;50.148;19.760;2023-07-13T03:36:27;5.55;;;4.28;;
21354;SDS011;10835;50.148;19.760;2023-07-13T03:39:00;5.57;;;4.55;;
21354;SDS011;10835;50.148;19.760;2023-07-13T03:41:36;6.78;;;3.80;;
21354;SDS011;10835;50.148;19.760;2023-07-13T03:44:05;4.95;;;4.13;;
21354;SDS011;10835;50.148;19.760;2023-07-13T03:46:34;5.40;;;3.75;;
21354;SDS011;10835;50.148;19.760;2023-07-13T03:49:03;5.63;;;4.15;;
21354;SDS011;10835;50.148;19.760;2023-07-13T03:51:33;8.63;;;4.18;;
21354;SDS011;10835;50.148;19.760;2023-07-13T03:54:02;5.28;;;4.18;;
21354;SDS011;10835;50.148;19.760;2023-07-13T03:56:31;6.45;;;4.35;;
21354;SDS011;10835;50.148;19.760;2023-07-13T03:59:02;3.55;;;3.00;;
21354;SDS011;10835;50.148;19.760;2023-07-13T04:01:30;5.72;;;3.70;;
21354;SDS011;10835;50.148;19.760;2023-07-13T04:03:59;5.40;;;4.10;;
21354;SDS011;10835;50.148;19.760;2023-07-13T04:06:30;7.95;;;4.30;;
21354;SDS011;10835;50.148;19.760;2023-07-13T04:09:00;6.60;;;4.35;;
21354;SDS011;10835;50.148;19.760;2023-07-13T04:11:32;6.22;;;3.78;;
21354;SDS011;10835;50.148;19.760;2023-07-13T04:14:03;5.45;;;4.22;;
21354;SDS011;10835;50.148;19.760;2023-07-13T04:16:33;8.68;;;3.58;;
21354;SDS011;10835;50.148;19.760;2023-07-13T04:19:01;5.82;;;3.85;;
21354;SDS011;10835;50.148;19.760;2023-07-13T04:21:31;6.65;;;3.83;;
21354;SDS011;10835;50.148;19.760;2023-07-13T04:24:01;6.70;;;4.03;;
21354;SDS011;10835;50.148;19.760;2023-07-13T04:26:30;6.60;;;4.20;;
21354;SDS011;10835;50.148;19.760;2023-07-13T04:28:58;6.00;;;3.90;;
21354;SDS011;10835;50.148;19.760;2023-07-13T04:31:27;5.55;;;4.53;;
21354;SDS011;10835;50.148;19.760;2023-07-13T04:33:55;6.68;;;4.20;;
21354;SDS011;10835;50.148;19.760;2023-07-13T04:36:23;4.32;;;3.47;;
21354;SDS011;10835;50.148;19.760;2023-07-13T04:38:53;5.20;;;3.58;;
21354;SDS011;10835;50.148;19.760;2023-07-13T04:41:23;4.88;;;4.05;;
21354;SDS011;10835;50.148;19.760;2023-07-13T04:43:51;4.07;;;3.67;;
21354;SDS011;10835;50.148;19.760;2023-07-13T04:46:22;4.68;;;3.83;;
21354;SDS011;10835;50.148;19.760;2023-07-13T04:48:51;5.15;;;3.92;;
21354;SDS011;10835;50.148;19.760;2023-07-13T04:51:20;11.57;;;4.20;;
21354;SDS011;10835;50.148;19.760;2023-07-13T04:53:48;6.13;;;4.00;;
21354;SDS011;10835;50.148;19.760;2023-07-13T04:56:25;4.15;;;3.75;;
21354;SDS011;10835;50.148;19.760;2023-07-13T04:58:54;5.00;;;3.90;;
21354;SDS011;10835;50.148;19.760;2023-07-13T05:01:22;7.05;;;4.20;;
21354;SDS011;10835;50.148;19.760;2023-07-13T05:03:51;4.90;;;3.75;;
21354;SDS011;10835;50.148;19.760;2023-07-13T05:06:22;5.03;;;3.90;;
21354;SDS011;10835;50.148;19.760;2023-07-13T05:08:50;5.65;;;3.53;;
21354;SDS011;10835;50.148;19.760;2023-07-13T05:11:18;4.88;;;3.60;;
21354;SDS011;10835;50.148;19.760;2023-07-13T05:13:49;6.30;;;3.85;;
21354;SDS011;10835;50.148;19.760;2023-07-13T05:16:18;4.47;;;3.40;;
21354;SDS011;10835;50.148;19.760;2023-07-13T05:18:47;10.13;;;4.10;;
21354;SDS011;10835;50.148;19.760;2023-07-13T05:21:17;7.85;;;3.70;;
21354;SDS011;10835;50.148;19.760;2023-07-13T05:23:46;10.55;;;3.75;;
21354;SDS011;10835;50.148;19.760;2023-07-13T05:26:17;3.72;;;3.30;;
21354;SDS011;10835;50.148;19.760;2023-07-13T05:28:48;7.35;;;3.53;;
21354;SDS011;10835;50.148;19.760;2023-07-13T05:31:16;4.53;;;3.55;;
21354;SDS011;10835;50.148;19.760;2023-07-13T05:33:47;3.97;;;3.42;;
21354;SDS011;10835;50.148;19.760;2023-07-13T05:36:16;6.30;;;3.90;;
21354;SDS011;10835;50.148;19.760;2023-07-13T05:38:44;4.57;;;2.47;;
21354;SDS011;10835;50.148;19.760;2023-07-13T05:41:13;8.20;;;3.13;;
21354;SDS011;10835;50.148;19.760;2023-07-13T05:43:41;4.05;;;3.10;;
21354;SDS011;10835;50.148;19.760;2023-07-13T05:46:10;4.10;;;3.15;;
21354;SDS011;10835;50.148;19.760;2023-07-13T05:48:39;7.65;;;3.55;;
21354;SDS011;10835;50.148;19.760;2023-07-13T05:51:07;3.13;;;2.50;;
21354;SDS011;10835;50.148;19.760;2023-07-13T05:53:36;4.43;;;2.95;;
21354;SDS011;10835;50.148;19.760;2023-07-13T05:56:04;4.22;;;3.25;;
21354;SDS011;10835;50.148;19.760;2023-07-13T05:58:33;4.05;;;3.08;;
21354;SDS011;10835;50.148;19.760;2023-07-13T06:01:03;5.90;;;3.30;;
21354;SDS011;10835;50.148;19.760;2023-07-13T06:03:34;5.30;;;3.67;;
21354;SDS011;10835;50.148;19.760;2023-07-13T06:06:04;6.22;;;4.18;;
21354;SDS011;10835;50.148;19.760;2023-07-13T06:08:33;7.05;;;4.85;;
21354;SDS011;10835;50.148;19.760;2023-07-13T06:11:03;7.43;;;4.72;;
21354;SDS011;10835;50.148;19.760;2023-07-13T06:13:31;8.55;;;4.22;;
21354;SDS011;10835;50.148;19.760;2023-07-13T06:16:00;6.13;;;4.13;;
21354;SDS011;10835;50.148;19.760;2023-07-13T06:18:31;7.38;;;4.07;;
21354;SDS011;10835;50.148;19.760;2023-07-13T06:21:01;7.82;;;4.68;;
21354;SDS011;10835;50.148;19.760;2023-07-13T06:23:33;8.10;;;4.38;;
21354;SDS011;10835;50.148;19.760;2023-07-13T06:26:01;6.20;;;3.88;;
21354;SDS011;10835;50.148;19.760;2023-07-13T06:28:29;5.47;;;4.30;;
21354;SDS011;10835;50.148;19.760;2023-07-13T06:30:58;7.55;;;4.10;;
21354;SDS011;10835;50.148;19.760;2023-07-13T06:33:27;6.85;;;4.43;;
21354;SDS011;10835;50.148;19.760;2023-07-13T06:35:55;5.47;;;3.47;;
21354;SDS011;10835;50.148;19.760;2023-07-13T06:38:25;5.57;;;4.13;;
21354;SDS011;10835;50.148;19.760;2023-07-13T06:40:53;7.05;;;4.40;;
21354;SDS011;10835;50.148;19.760;2023-07-13T06:43:21;5.70;;;3.50;;
21354;SDS011;10835;50.148;19.760;2023-07-13T06:45:51;7.07;;;3.60;;
21354;SDS011;10835;50.148;19.760;2023-07-13T06:48:22;3.88;;;3.17;;
21354;SDS011;10835;50.148;19.760;2023-07-13T06:50:51;8.85;;;4.30;;
21354;SDS011;10835;50.148;19.760;2023-07-13T06:53:20;5.15;;;4.13;;
21354;SDS011;10835;50.148;19.760;2023-07-13T06:55:50;6.75;;;3.92;;
21354;SDS011;10835;50.148;19.760;2023-07-13T06:58:19;6.68;;;3.67;;
21354;SDS011;10835;50.148;19.760;2023-07-13T07:00:49;7.93;;;4.30;;
21354;SDS011;10835;50.148;19.760;2023-07-13T07:03:18;8.05;;;4.30;;
21354;SDS011;10835;50.148;19.760;2023-07-13T07:05:47;4.18;;;3.10;;
21354;SDS011;10835;50.148;19.760;2023-07-13T07:08:18;7.45;;;3.65;;
21354;SDS011;10835;50.148;19.760;2023-07-13T07:10:47;4.13;;;3.20;;
21354;SDS011;10835;50.148;19.760;2023-07-13T07:13:23;5.63;;;3.10;;
21354;SDS011;10835;50.148;19.760;2023-07-13T07:15:51;4.53;;;2.90;;
21354;SDS011;10835;50.148;19.760;2023-07-13T07:18:19;4.13;;;3.13;;
21354;SDS011;10835;50.148;19.760;2023-07-13T07:20:48;3.25;;;2.80;;
21354;SDS011;10835;50.148;19.760;2023-07-13T07:23:16;3.53;;;2.85;;
21354;SDS011;10835;50.148;19.760;2023-07-13T07:25:45;3.72;;;3.03;;
21354;SDS011;10835;50.148;19.760;2023-07-13T07:28:14;5.07;;;3.00;;
21354;SDS011;10835;50.148;19.760;2023-07-13T07:30:52;4.18;;;2.65;;
21354;SDS011;10835;50.148;19.760;2023-07-13T07:33:43;4.35;;;2.63;;
21354;SDS011;10835;50.148;19.760;2023-07-13T07:36:12;3.38;;;2.85;;
21354;SDS011;10835;50.148;19.760;2023-07-13T07:38:43;2.40;;;2.20;;
21354;SDS011;10835;50.148;19.760;2023-07-13T07:41:12;3.97;;;2.55;;
21354;SDS011;10835;50.148;19.760;2023-07-13T07:43:44;3.30;;;2.63;;
21354;SDS011;10835;50.148;19.760;2023-07-13T07:46:14;4.40;;;2.95;;
21354;SDS011;10835;50.148;19.760;2023-07-13T07:48:42;5.00;;;2.63;;
21354;SDS011;10835;50.148;19.760;2023-07-13T07:51:11;6.68;;;2.60;;
21354;SDS011;10835;50.148;19.760;2023-07-13T07:53:39;2.35;;;2.03;;
21354;SDS011;10835;50.148;19.760;2023-07-13T07:56:07;4.35;;;2.70;;
21354;SDS011;10835;50.148;19.760;2023-07-13T07:58:39;3.33;;;2.80;;
21354;SDS011;10835;50.148;19.760;2023-07-13T08:01:10;2.78;;;2.40;;
21354;SDS011;10835;50.148;19.760;2023-07-13T08:03:43;2.50;;;2.30;;
21354;SDS011;10835;50.148;19.760;2023-07-13T08:06:14;4.07;;;2.33;;
21354;SDS011;10835;50.148;19.760;2023-07-13T08:09:02;4.80;;;2.78;;
21354;SDS011;10835;50.148;19.760;2023-07-13T08:11:31;4.20;;;2.40;;
21354;SDS011;10835;50.148;19.760;2023-07-13T08:14:02;4.57;;;2.55;;
21354;SDS011;10835;50.148;19.760;2023-07-13T08:16:30;1.75;;;1.65;;
21354;SDS011;10835;50.148;19.760;2023-07-13T08:19:01;2.80;;;2.42;;
21354;SDS011;10835;50.148;19.760;2023-07-13T08:21:30;3.10;;;2.00;;
21354;SDS011;10835;50.148;19.760;2023-07-13T08:23:59;2.20;;;2.00;;
21354;SDS011;10835;50.148;19.760;2023-07-13T08:26:27;4.35;;;2.38;;
21354;SDS011;10835;50.148;19.760;2023-07-13T08:28:55;2.78;;;2.22;;
21354;SDS011;10835;50.148;19.760;2023-07-13T08:31:24;3.58;;;2.28;;
21354;SDS011;10835;50.148;19.760;2023-07-13T08:33:52;3.05;;;2.00;;
21354;SDS011;10835;50.148;19.760;2023-07-13T08:36:24;2.42;;;2.05;;
21354;SDS011;10835;50.148;19.760;2023-07-13T08:38:53;2.85;;;2.25;;
21354;SDS011;10835;50.148;19.760;2023-07-13T08:41:21;3.38;;;2.45;;
21354;SDS011;10835;50.148;19.760;2023-07-13T08:43:51;3.00;;;2.38;;
21354;SDS011;10835;50.148;19.760;2023-07-13T08:46:27;3.90;;;2.50;;
21354;SDS011;10835;50.148;19.760;2023-07-13T08:49:01;4.72;;;2.17;;
21354;SDS011;10835;50.148;19.760;2023-07-13T08:51:35;4.97;;;2.70;;
21354;SDS011;10835;50.148;19.760;2023-07-13T08:54:12;4.13;;;2.60;;
21354;SDS011;10835;50.148;19.760;2023-07-13T08:56:47;4.53;;;2.55;;
21354;SDS011;10835;50.148;19.760;2023-07-13T08:59:20;4.25;;;2.78;;
21354;SDS011;10835;50.148;19.760;2023-07-13T09:01:58;3.38;;;2.55;;
21354;SDS011;10835;50.148;19.760;2023-07-13T09:04:37;3.78;;;2.40;;
21354;SDS011;10835;50.148;19.760;2023-07-13T09:07:14;2.70;;;2.40;;
21354;SDS011;10835;50.148;19.760;2023-07-13T09:09:59;3.63;;;2.38;;
21354;SDS011;10835;50.148;19.760;2023-07-13T09:12:37;4.30;;;2.67;;
21354;SDS011;10835;50.148;19.760;2023-07-13T09:15:23;3.22;;;2.50;;
21354;SDS011;10835;50.148;19.760;2023-07-13T09:17:58;3.85;;;2.70;;
21354;SDS011;10835;50.148;19.760;2023-07-13T09:20:31;4.50;;;2.63;;
21354;SDS011;10835;50.148;19.760;2023-07-13T09:23:04;4.00;;;2.65;;
21354;SDS011;10835;50.148;19.760;2023-07-13T09:25:37;3.78;;;2.47;;
21354;SDS011;10835;50.148;19.760;2023-07-13T09:28:09;3.50;;;2.63;;
21354;SDS011;10835;50.148;19.760;2023-07-13T09:30:43;3.20;;;2.40;;
21354;SDS011;10835;50.148;19.760;2023-07-13T09:33:20;3.10;;;2.78;;
21354;SDS011;10835;50.148;19.760;2023-07-13T09:35:49;3.50;;;2.63;;
21354;SDS011;10835;50.148;19.760;2023-07-13T09:38:19;4.13;;;2.50;;
21354;SDS011;10835;50.148;19.760;2023-07-13T09:41:04;5.22;;;2.63;;
21354;SDS011;10835;50.148;19.760;2023-07-13T09:46:28;3.03;;;2.60;;
21354;SDS011;10835;50.148;19.760;2023-07-13T09:48:57;5.32;;;2.90;;
21354;SDS011;10835;50.148;19.760;2023-07-13T09:51:25;4.15;;;2.67;;
21354;SDS011;10835;50.148;19.760;2023-07-13T09:53:55;4.65;;;3.08;;
21354;SDS011;10835;50.148;19.760;2023-07-13T09:56:26;3.45;;;2.78;;
21354;SDS011;10835;50.148;19.760;2023-07-13T09:58:57;3.83;;;2.63;;
21354;SDS011;10835;50.148;19.760;2023-07-13T10:01:33;3.03;;;2.30;;
21354;SDS011;10835;50.148;19.760;2023-07-13T10:04:10;5.10;;;2.67;;
21354;SDS011;10835;50.148;19.760;2023-07-13T10:06:40;3.53;;;2.78;;
21354;SDS011;10835;50.148;19.760;2023-07-13T10:09:13;4.35;;;2.50;;
21354;SDS011;10835;50.148;19.760;2023-07-13T10:11:43;4.20;;;2.88;;
21354;SDS011;10835;50.148;19.760;2023-07-13T10:14:13;3.08;;;2.55;;
21354;SDS011;10835;50.148;19.760;2023-07-13T10:16:44;2.78;;;2.25;;
21354;SDS011;10835;50.148;19.760;2023-07-13T10:19:15;3.60;;;2.63;;
21354;SDS011;10835;50.148;19.760;2023-07-13T10:21:50;7.10;;;3.38;;
21354;SDS011;10835;50.148;19.760;2023-07-13T10:24:25;5.38;;;3.25;;
21354;SDS011;10835;50.148;19.760;2023-07-13T10:26:56;4.60;;;2.95;;
21354;SDS011;10835;50.148;19.760;2023-07-13T10:29:32;4.00;;;3.17;;
21354;SDS011;10835;50.148;19.760;2023-07-13T10:32:07;4.38;;;3.53;;
21354;SDS011;10835;50.148;19.760;2023-07-13T10:34:38;4.35;;;3.60;;
21354;SDS011;10835;50.148;19.760;2023-07-13T10:37:09;4.55;;;3.30;;
21354;SDS011;10835;50.148;19.760;2023-07-13T10:39:46;4.28;;;2.97;;
21354;SDS011;10835;50.148;19.760;2023-07-13T10:42:25;6.38;;;3.90;;
21354;SDS011;10835;50.148;19.760;2023-07-13T10:44:57;3.97;;;3.58;;
21354;SDS011;10835;50.148;19.760;2023-07-13T10:47:26;4.43;;;3.53;;
21354;SDS011;10835;50.148;19.760;2023-07-13T10:49:59;4.63;;;3.45;;
21354;SDS011;10835;50.148;19.760;2023-07-13T10:52:40;6.50;;;4.00;;
21354;SDS011;10835;50.148;19.760;2023-07-13T10:58:14;8.32;;;4.10;;
21354;SDS011;10835;50.148;19.760;2023-07-13T11:00:49;7.00;;;4.10;;
21354;SDS011;10835;50.148;19.760;2023-07-13T11:03:20;5.05;;;3.05;;
21354;SDS011;10835;50.148;19.760;2023-07-13T11:05:51;5.80;;;3.95;;
21354;SDS011;10835;50.148;19.760;2023-07-13T11:08:32;7.35;;;4.55;;
21354;SDS011;10835;50.148;19.760;2023-07-13T11:11:31;7.63;;;5.22;;
21354;SDS011;10835;50.148;19.760;2023-07-13T11:14:03;7.60;;;5.15;;
21354;SDS011;10835;50.148;19.760;2023-07-13T11:16:42;11.13;;;6.03;;
21354;SDS011;10835;50.148;19.760;2023-07-13T11:22:13;4.30;;;2.88;;
21354;SDS011;10835;50.148;19.760;2023-07-13T11:24:51;4.25;;;2.35;;
21354;SDS011;10835;50.148;19.760;2023-07-13T11:27:36;3.95;;;2.25;;
21354;SDS011;10835;50.148;19.760;2023-07-13T11:30:21;1.70;;;1.58;;
21354;SDS011;10835;50.148;19.760;2023-07-13T11:33:02;1.85;;;1.42;;
21354;SDS011;10835;50.148;19.760;2023-07-13T11:35:35;2.78;;;1.50;;
21354;SDS011;10835;50.148;19.760;2023-07-13T11:38:11;2.42;;;1.63;;
21354;SDS011;10835;50.148;19.760;2023-07-13T11:40:46;4.63;;;1.90;;
21354;SDS011;10835;50.148;19.760;2023-07-13T11:43:23;3.30;;;1.73;;
21354;SDS011;10835;50.148;19.760;2023-07-13T11:45:52;3.22;;;2.13;;
21354;SDS011;10835;50.148;19.760;2023-07-13T11:48:21;6.05;;;1.85;;
21354;SDS011;10835;50.148;19.760;2023-07-13T11:50:54;6.13;;;1.58;;
21354;SDS011;10835;50.148;19.760;2023-07-13T11:53:28;3.28;;;1.67;;
21354;SDS011;10835;50.148;19.760;2023-07-13T11:56:02;3.38;;;1.38;;
21354;SDS011;10835;50.148;19.760;2023-07-13T11:58:32;3.08;;;1.38;;
21354;SDS011;10835;50.148;19.760;2023-07-13T12:01:03;1.45;;;1.02;;
21354;SDS011;10835;50.148;19.760;2023-07-13T12:03:32;2.88;;;1.23;;
21354;SDS011;10835;50.148;19.760;2023-07-13T12:06:03;2.35;;;1.25;;
21354;SDS011;10835;50.148;19.760;2023-07-13T12:08:37;1.85;;;1.15;;
21354;SDS011;10835;50.148;19.760;2023-07-13T12:11:16;2.25;;;1.10;;
21354;SDS011;10835;50.148;19.760;2023-07-13T12:13:48;1.10;;;0.93;;
21354;SDS011;10835;50.148;19.760;2023-07-13T12:16:20;2.22;;;1.05;;
21354;SDS011;10835;50.148;19.760;2023-07-13T12:18:53;2.78;;;1.10;;
21354;SDS011;10835;50.148;19.760;2023-07-13T12:21:24;2.08;;;1.10;;
21354;SDS011;10835;50.148;19.760;2023-07-13T12:23:59;0.98;;;0.80;;
21354;SDS011;10835;50.148;19.760;2023-07-13T12:26:29;1.25;;;0.90;;
21354;SDS011;10835;50.148;19.760;2023-07-13T12:29:00;1.00;;;0.80;;
21354;SDS011;10835;50.148;19.760;2023-07-13T12:31:34;0.80;;;0.80;;
21354;SDS011;10835;50.148;19.760;2023-07-13T12:34:06;2.17;;;1.02;;
21354;SDS011;10835;50.148;19.760;2023-07-13T12:36:38;1.00;;;0.80;;
21354;SDS011;10835;50.148;19.760;2023-07-13T12:39:13;3.00;;;0.90;;
21354;SDS011;10835;50.148;19.760;2023-07-13T12:41:45;2.53;;;0.80;;
21354;SDS011;10835;50.148;19.760;2023-07-13T12:44:16;0.68;;;0.63;;
21354;SDS011;10835;50.148;19.760;2023-07-13T12:46:52;0.95;;;0.57;;
21354;SDS011;10835;50.148;19.760;2023-07-13T12:49:24;0.77;;;0.60;;
21354;SDS011;10835;50.148;19.760;2023-07-13T12:51:56;0.50;;;0.50;;
21354;SDS011;10835;50.148;19.760;2023-07-13T12:54:26;1.58;;;0.55;;
21354;SDS011;10835;50.148;19.760;2023-07-13T12:56:55;0.60;;;0.50;;
21354;SDS011;10835;50.148;19.760;2023-07-13T12:59:29;0.47;;;0.40;;
21354;SDS011;10835;50.148;19.760;2023-07-13T13:01:59;3.30;;;0.50;;
21354;SDS011;10835;50.148;19.760;2023-07-13T13:04:29;0.50;;;0.50;;
21354;SDS011;10835;50.148;19.760;2023-07-13T13:07:01;5.70;;;0.90;;
21354;SDS011;10835;50.148;19.760;2023-07-13T13:09:31;2.88;;;1.00;;
21354;SDS011;10835;50.148;19.760;2023-07-13T13:12:00;0.85;;;0.75;;
21354;SDS011;10835;50.148;19.760;2023-07-13T13:14:30;1.50;;;1.00;;
21354;SDS011;10835;50.148;19.760;2023-07-13T13:16:58;1.38;;;1.05;;
21354;SDS011;10835;50.148;19.760;2023-07-13T13:19:27;1.10;;;1.00;;
21354;SDS011;10835;50.148;19.760;2023-07-13T13:21:57;1.10;;;0.90;;
21354;SDS011;10835;50.148;19.760;2023-07-13T13:24:26;1.17;;;0.90;;
21354;SDS011;10835;50.148;19.760;2023-07-13T13:26:55;2.03;;;1.08;;
21354;SDS011;10835;50.148;19.760;2023-07-13T13:29:27;2.47;;;1.20;;
21354;SDS011;10835;50.148;19.760;2023-07-13T13:31:59;2.22;;;1.00;;
21354;SDS011;10835;50.148;19.760;2023-07-13T13:34:28;0.65;;;0.65;;
21354;SDS011;10835;50.148;19.760;2023-07-13T13:36:56;1.20;;;1.10;;
21354;SDS011;10835;50.148;19.760;2023-07-13T13:39:28;2.03;;;1.13;;
21354;SDS011;10835;50.148;19.760;2023-07-13T13:42:01;1.55;;;0.93;;
21354;SDS011;10835;50.148;19.760;2023-07-13T13:44:30;1.73;;;0.90;;
21354;SDS011;10835;50.148;19.760;2023-07-13T13:46:59;0.90;;;0.85;;
21354;SDS011;10835;50.148;19.760;2023-07-13T13:49:29;1.95;;;1.00;;
21354;SDS011;10835;50.148;19.760;2023-07-13T13:51:58;4.53;;;1.08;;
21354;SDS011;10835;50.148;19.760;2023-07-13T13:54:27;1.27;;;1.10;;
21354;SDS011;10835;50.148;19.760;2023-07-13T13:56:55;1.17;;;1.05;;
21354;SDS011;10835;50.148;19.760;2023-07-13T13:59:27;1.50;;;0.73;;
21354;SDS011;10835;50.148;19.760;2023-07-13T14:01:55;2.05;;;1.00;;
21354;SDS011;10835;50.148;19.760;2023-07-13T14:04:27;1.98;;;1.27;;
21354;SDS011;10835;50.148;19.760;2023-07-13T14:06:56;6.47;;;1.27;;
21354;SDS011;10835;50.148;19.760;2023-07-13T14:09:24;1.65;;;1.33;;
21354;SDS011;10835;50.148;19.760;2023-07-13T14:11:53;1.20;;;0.88;;
21354;SDS011;10835;50.148;19.760;2023-07-13T14:14:23;1.08;;;0.90;;
21354;SDS011;10835;50.148;19.760;2023-07-13T14:16:53;1.30;;;1.20;;
21354;SDS011;10835;50.148;19.760;2023-07-13T14:19:24;1.40;;;1.30;;
21354;SDS011;10835;50.148;19.760;2023-07-13T14:21:54;1.30;;;1.20;;
21354;SDS011;10835;50.148;19.760;2023-07-13T14:24:22;2.15;;;1.38;;
21354;SDS011;10835;50.148;19.760;2023-07-13T14:26:51;1.63;;;1.25;;
21354;SDS011;10835;50.148;19.760;2023-07-13T14:29:19;3.88;;;1.40;;
21354;SDS011;10835;50.148;19.760;2023-07-13T14:31:50;2.97;;;1.65;;
21354;SDS011;10835;50.148;19.760;2023-07-13T14:34:19;2.53;;;1.42;;
21354;SDS011;10835;50.148;19.760;2023-07-13T14:36:49;3.70;;;1.63;;
21354;SDS011;10835;50.148;19.760;2023-07-13T14:39:20;2.15;;;1.55;;
21354;SDS011;10835;50.148;19.760;2023-07-13T14:41:50;3.40;;;1.80;;
21354;SDS011;10835;50.148;19.760;2023-07-13T14:44:21;3.35;;;1.60;;
21354;SDS011;10835;50.148;19.760;2023-07-13T14:46:52;2.17;;;1.40;;
21354;SDS011;10835;50.148;19.760;2023-07-13T14:49:23;2.50;;;1.70;;
21354;SDS011;10835;50.148;19.760;2023-07-13T14:51:59;1.90;;;1.60;;
21354;SDS011;10835;50.148;19.760;2023-07-13T14:54:32;3.17;;;1.70;;
21354;SDS011;10835;50.148;19.760;2023-07-13T14:57:01;1.65;;;1.50;;
21354;SDS011;10835;50.148;19.760;2023-07-13T14:59:29;2.47;;;1.65;;
21354;SDS011;10835;50.148;19.760;2023-07-13T15:01:58;4.47;;;1.92;;
21354;SDS011;10835;50.148;19.760;2023-07-13T15:04:29;6.35;;;3.40;;